createdAt,value
2023-04-03T00:01:55.760Z,4.04
2023-04-03T00:04:17.393Z,4.04
2023-04-03T00:06:38.850Z,4.08
2023-04-03T00:09:00.350Z,4.03
2023-04-03T00:11:21.786Z,3.84
2023-04-03T00:13:43.791Z,3.66
2023-04-03T00:16:05.853Z,3.59
2023-04-03T00:18:27.393Z,3.63
2023-04-03T00:20:49.072Z,3.66
2023-04-03T00:23:10.895Z,3.71
2023-04-03T00:25:32.431Z,3.77
2023-04-03T00:27:53.864Z,3.72
2023-04-03T00:30:17.734Z,3.72
2023-04-03T00:32:39.358Z,3.51
2023-04-03T00:35:00.869Z,3.35
2023-04-03T00:37:22.355Z,3.29
2023-04-03T00:39:44.164Z,3.30
2023-04-03T00:42:05.605Z,3.25
2023-04-03T00:44:36.151Z,3.16
2023-04-03T00:46:57.627Z,3.27
2023-04-03T00:49:19.147Z,3.09
2023-04-03T00:51:41.062Z,3.04
2023-04-03T00:54:06.444Z,3.09
2023-04-03T00:56:30.828Z,2.95
2023-04-03T00:58:59.869Z,2.85
2023-04-03T01:01:26.205Z,2.96
2023-04-03T01:03:47.735Z,3.21
2023-04-03T01:06:09.312Z,3.10
2023-04-03T01:08:31.241Z,3.21
2023-04-03T01:10:52.761Z,3.15
2023-04-03T01:13:30.424Z,3.10
2023-04-03T01:15:51.949Z,2.91
2023-04-03T01:18:13.445Z,2.89
2023-04-03T01:20:36.846Z,2.85
2023-04-03T01:23:11.111Z,2.86
2023-04-03T01:25:33.205Z,3.02
2023-04-03T01:27:54.729Z,2.99
2023-04-03T01:30:18.900Z,3.01
2023-04-03T01:32:40.383Z,2.97
2023-04-03T01:35:01.838Z,3.01
2023-04-03T01:37:23.289Z,3.10
2023-04-03T01:39:44.730Z,3.12
2023-04-03T01:42:06.740Z,2.90
2023-04-03T01:44:28.372Z,2.99
2023-04-03T01:46:49.864Z,3.01
2023-04-03T01:49:11.400Z,3.12
2023-04-03T01:51:34.074Z,3.20
2023-04-03T01:53:55.527Z,3.12
2023-04-03T01:56:16.973Z,3.05
2023-04-03T01:58:38.411Z,3.00
2023-04-03T02:01:00.264Z,3.13
2023-04-03T02:03:21.775Z,2.89
2023-04-03T02:05:43.395Z,2.96
2023-04-03T02:08:05.104Z,2.92
2023-04-03T02:10:26.586Z,3.00
2023-04-03T02:12:48.065Z,3.04
2023-04-03T02:15:10.024Z,2.98
2023-04-03T02:17:31.660Z,2.99
2023-04-03T02:19:53.158Z,3.02
2023-04-03T02:22:14.751Z,2.89
2023-04-03T02:24:36.370Z,2.82
2023-04-03T02:26:57.904Z,2.83
2023-04-03T02:29:19.361Z,2.77
2023-04-03T02:31:40.886Z,2.75
2023-04-03T02:34:02.347Z,2.80
2023-04-03T02:36:23.763Z,2.89
2023-04-03T02:38:46.570Z,2.71
2023-04-03T02:41:11.276Z,2.77
2023-04-03T02:43:32.982Z,2.83
2023-04-03T02:45:54.447Z,2.77
2023-04-03T02:48:17.768Z,2.69
2023-04-03T02:50:39.277Z,2.61
2023-04-03T02:53:00.840Z,2.50
2023-04-03T02:55:22.317Z,2.62
2023-04-03T02:57:43.780Z,2.57
2023-04-03T03:00:06.221Z,2.47
2023-04-03T03:02:27.727Z,2.30
2023-04-03T03:04:49.266Z,2.39
2023-04-03T03:07:11.112Z,2.47
2023-04-03T03:09:33.034Z,2.27
2023-04-03T03:11:54.496Z,2.31
2023-04-03T03:14:16.275Z,2.32
2023-04-03T03:16:37.771Z,2.35
2023-04-03T03:18:59.644Z,2.32
2023-04-03T03:21:21.215Z,2.23
2023-04-03T03:23:42.689Z,2.24
2023-04-03T03:26:06.942Z,2.13
2023-04-03T03:28:28.541Z,2.13
2023-04-03T03:30:50.032Z,2.08
2023-04-03T03:33:11.711Z,2.14
2023-04-03T03:35:33.674Z,2.10
2023-04-03T03:37:55.438Z,2.14
2023-04-03T03:40:17.001Z,2.09
2023-04-03T03:42:40.270Z,2.02
2023-04-03T03:45:01.773Z,2.13
2023-04-03T03:47:23.329Z,2.04
2023-04-03T03:49:44.810Z,1.96
2023-04-03T03:52:06.284Z,1.91
2023-04-03T03:54:27.760Z,1.94
2023-04-03T03:56:49.261Z,1.96
2023-04-03T03:59:12.906Z,1.81
2023-04-03T04:01:34.635Z,1.74
2023-04-03T04:03:56.636Z,1.72
2023-04-03T04:06:18.448Z,1.70
2023-04-03T04:08:39.938Z,1.84
2023-04-03T04:11:01.433Z,1.81
2023-04-03T04:13:22.916Z,1.94
2023-04-03T04:15:44.698Z,1.87
2023-04-03T04:18:06.498Z,1.88
2023-04-03T04:20:27.976Z,1.89
2023-04-03T04:22:49.443Z,1.87
2023-04-03T04:25:11.329Z,1.86
2023-04-03T04:27:32.763Z,1.83
2023-04-03T04:29:54.247Z,2.04
2023-04-03T04:32:15.888Z,2.07
2023-04-03T04:34:37.426Z,2.01
2023-04-03T04:36:59.070Z,1.89
2023-04-03T04:39:20.689Z,1.95
2023-04-03T04:41:42.167Z,1.90
2023-04-03T04:44:03.746Z,2.01
2023-04-03T04:46:25.383Z,1.94
2023-04-03T04:48:46.921Z,1.97
2023-04-03T04:51:08.550Z,2.03
2023-04-03T04:53:30.651Z,2.01
2023-04-03T04:55:53.144Z,1.95
2023-04-03T04:58:14.721Z,1.95
2023-04-03T05:00:36.283Z,1.95
2023-04-03T05:02:57.791Z,2.10
2023-04-03T05:05:19.315Z,2.05
2023-04-03T05:07:41.426Z,2.09
2023-04-03T05:10:04.587Z,2.03
2023-04-03T05:12:26.057Z,2.11
2023-04-03T05:14:47.555Z,2.07
2023-04-03T05:17:09.046Z,2.10
2023-04-03T05:19:30.621Z,2.07
2023-04-03T05:21:52.179Z,2.12
2023-04-03T05:24:13.723Z,2.14
2023-04-03T05:26:35.234Z,2.15
2023-04-03T05:28:57.139Z,2.16
2023-04-03T05:31:18.721Z,2.25
2023-04-03T05:33:40.213Z,2.25
2023-04-03T05:36:06.526Z,2.32
2023-04-03T05:38:29.950Z,2.32
2023-04-03T05:40:51.500Z,2.17
2023-04-03T05:43:13.080Z,2.30
2023-04-03T05:45:34.579Z,2.30
2023-04-03T05:47:56.270Z,2.32
2023-04-03T05:50:17.921Z,2.45
2023-04-03T05:52:43.527Z,2.55
2023-04-03T05:55:05.536Z,2.43
2023-04-03T05:57:27.026Z,2.48
2023-04-03T05:59:48.984Z,2.54
2023-04-03T06:02:13.785Z,2.54
2023-04-03T06:04:35.650Z,2.67
2023-04-03T06:06:58.588Z,2.66
2023-04-03T06:09:22.168Z,2.60
2023-04-03T06:11:43.770Z,2.64
2023-04-03T06:14:05.216Z,2.68
2023-04-03T06:16:26.771Z,2.79
2023-04-03T06:18:48.234Z,2.79
2023-04-03T06:21:09.709Z,2.91
2023-04-03T06:23:31.382Z,2.98
2023-04-03T06:25:52.803Z,3.03
2023-04-03T06:28:14.376Z,3.15
2023-04-03T06:30:36.477Z,3.10
2023-04-03T06:32:58.177Z,3.11
2023-04-03T06:35:19.758Z,3.40
2023-04-03T06:37:41.181Z,3.43
2023-04-03T06:40:04.126Z,3.25
2023-04-03T06:42:25.633Z,3.15
2023-04-03T06:44:47.206Z,3.23
2023-04-03T06:47:12.639Z,3.32
2023-04-03T06:49:34.566Z,3.26
2023-04-03T06:51:57.092Z,3.44
2023-04-03T06:54:19.437Z,3.51
2023-04-03T06:56:41.067Z,3.69
2023-04-03T06:59:03.091Z,3.61
2023-04-03T07:01:27.278Z,3.67
2023-04-03T07:03:49.593Z,3.57
2023-04-03T07:06:13.856Z,3.61
2023-04-03T07:08:35.793Z,3.45
2023-04-03T07:10:57.293Z,3.77
2023-04-03T07:13:18.753Z,4.04
2023-04-03T07:15:40.530Z,4.14
2023-04-03T07:18:02.040Z,4.19
2023-04-03T07:20:23.524Z,4.33
2023-04-03T07:22:45.041Z,4.31
2023-04-03T07:25:08.263Z,4.40
2023-04-03T07:27:29.739Z,4.41
2023-04-03T07:29:51.323Z,4.52
2023-04-03T07:32:12.767Z,4.35
2023-04-03T07:34:34.299Z,4.61
2023-04-03T07:36:55.881Z,4.46
2023-04-03T07:39:17.422Z,4.42
2023-04-03T07:41:39.298Z,4.60
2023-04-03T07:44:00.751Z,4.59
2023-04-03T07:46:22.295Z,4.68
2023-04-03T07:48:43.875Z,4.89
2023-04-03T07:51:06.301Z,5.31
2023-04-03T07:53:27.761Z,5.45
2023-04-03T07:55:52.567Z,5.74
2023-04-03T07:58:16.646Z,5.79
2023-04-03T08:00:39.393Z,5.77
2023-04-03T08:03:00.997Z,6.02
2023-04-03T08:05:22.837Z,6.16
2023-04-03T08:07:44.337Z,6.58
2023-04-03T08:10:06.338Z,6.51
2023-04-03T08:12:29.557Z,6.74
2023-04-03T08:14:51.152Z,7.20
2023-04-03T08:17:12.823Z,7.49
2023-04-03T08:19:34.338Z,7.13
2023-04-03T08:21:56.355Z,7.15
2023-04-03T08:24:17.900Z,6.84
2023-04-03T08:26:39.404Z,6.54
2023-04-03T08:29:00.939Z,6.00
2023-04-03T08:31:22.487Z,5.59
2023-04-03T08:33:45.826Z,5.13
2023-04-03T08:36:17.021Z,5.00
2023-04-03T08:38:38.633Z,4.82
2023-04-03T08:41:07.418Z,4.44
2023-04-03T08:43:34.933Z,4.45
2023-04-03T08:45:59.394Z,4.68
2023-04-03T08:48:42.648Z,4.91
2023-04-03T08:51:13.903Z,4.63
2023-04-03T08:53:40.267Z,4.39
2023-04-03T08:56:08.701Z,4.34
2023-04-03T08:58:35.138Z,4.34
2023-04-03T09:01:07.653Z,4.26
2023-04-03T09:03:32.441Z,4.28
2023-04-03T09:06:03.102Z,4.33
2023-04-03T09:08:29.423Z,4.73
2023-04-03T09:10:55.844Z,4.91
2023-04-03T09:13:42.878Z,4.91
2023-04-03T09:16:16.557Z,4.99
2023-04-03T09:18:46.553Z,5.12
2023-04-03T09:21:22.026Z,5.21
2023-04-03T09:23:54.800Z,5.20
2023-04-03T09:26:27.263Z,5.43
2023-04-03T09:28:51.188Z,5.40
2023-04-03T09:31:20.746Z,5.37
2023-04-03T09:33:42.490Z,5.39
2023-04-03T09:36:03.993Z,5.46
2023-04-03T09:38:26.511Z,5.58
2023-04-03T09:41:04.553Z,5.61
2023-04-03T09:43:34.336Z,5.99
2023-04-03T09:45:57.700Z,6.28
2023-04-03T09:48:22.739Z,6.65
2023-04-03T09:51:00.365Z,6.79
2023-04-03T09:53:41.961Z,6.86
2023-04-03T09:56:26.809Z,6.84
2023-04-03T09:59:13.809Z,6.87
2023-04-03T10:01:38.240Z,6.76
2023-04-03T10:04:09.477Z,6.67
2023-04-03T10:06:36.376Z,6.59
2023-04-03T10:09:06.233Z,6.29
2023-04-03T10:11:28.091Z,6.31
2023-04-03T10:14:00.374Z,6.10
2023-04-03T10:16:28.371Z,5.95
2023-04-03T10:18:59.186Z,5.91
2023-04-03T10:21:47.678Z,5.77
2023-04-03T10:24:12.405Z,5.84
2023-04-03T10:26:58.279Z,5.64
2023-04-03T10:29:35.584Z,5.69
2023-04-03T10:32:23.762Z,5.95
2023-04-03T10:34:54.727Z,6.13
2023-04-03T10:37:37.788Z,6.41
2023-04-03T10:40:06.820Z,6.62
2023-04-03T10:42:40.338Z,6.56
2023-04-03T10:45:39.084Z,6.83
2023-04-03T10:48:32.929Z,6.97
2023-04-03T10:51:06.075Z,6.80
2023-04-03T10:54:01.018Z,6.75
2023-04-03T10:57:04.529Z,6.92
2023-04-03T10:59:33.227Z,7.08
2023-04-03T11:02:01.701Z,7.15
2023-04-03T11:04:26.779Z,7.33
2023-04-03T11:06:54.445Z,7.22
2023-04-03T11:09:27.366Z,7.37
2023-04-03T11:11:52.508Z,7.46
2023-04-03T11:14:37.452Z,7.78
2023-04-03T11:17:19.119Z,7.98
2023-04-03T11:19:45.045Z,8.33
2023-04-03T11:22:16.138Z,7.88
2023-04-03T11:24:42.222Z,7.63
2023-04-03T11:27:06.320Z,7.67
2023-04-03T11:29:35.933Z,7.82
2023-04-03T11:32:17.552Z,7.77
2023-04-03T11:34:44.348Z,8.07
2023-04-03T11:37:13.831Z,8.31
2023-04-03T11:39:39.610Z,8.28
2023-04-03T11:42:17.894Z,8.70
2023-04-03T11:44:40.043Z,8.85
2023-04-03T11:47:03.487Z,8.90
2023-04-03T11:50:00.399Z,8.75
2023-04-03T11:52:43.666Z,8.43
2023-04-03T11:55:24.007Z,8.36
2023-04-03T11:58:00.725Z,7.99
2023-04-03T12:00:59.335Z,7.76
2023-04-03T12:03:27.593Z,7.42
2023-04-03T12:05:49.182Z,7.68
2023-04-03T12:08:31.554Z,7.80
2023-04-03T12:11:11.568Z,7.87
2023-04-03T12:13:33.235Z,8.28
2023-04-03T12:15:55.221Z,8.46
2023-04-03T12:18:42.503Z,8.59
2023-04-03T12:21:04.437Z,8.85
2023-04-03T12:23:37.371Z,8.95
2023-04-03T12:26:23.079Z,9.08
2023-04-03T12:28:44.844Z,8.64
2023-04-03T12:31:10.830Z,9.02
2023-04-03T12:33:58.732Z,9.27
2023-04-03T12:36:33.662Z,9.59
2023-04-03T12:39:27.534Z,9.98
2023-04-03T12:41:57.091Z,10.85
2023-04-03T12:44:54.683Z,11.41
2023-04-03T12:47:41.028Z,12.12
2023-04-03T12:50:05.807Z,12.44
2023-04-03T12:52:40.812Z,13.28
2023-04-03T12:55:05.129Z,14.34
2023-04-03T12:57:28.554Z,14.85
2023-04-03T12:59:50.161Z,15.70
2023-04-03T13:02:22.351Z,16.38
2023-04-03T13:04:43.838Z,16.13
2023-04-03T13:07:05.536Z,16.99
2023-04-03T13:09:32.160Z,17.43
2023-04-03T13:12:01.397Z,17.40
2023-04-03T13:14:25.230Z,17.87
2023-04-03T13:17:17.001Z,18.42
2023-04-03T13:19:38.617Z,18.89
2023-04-03T13:22:16.950Z,19.06
2023-04-03T13:24:40.412Z,18.92
2023-04-03T13:27:02.371Z,19.38
2023-04-03T13:29:34.647Z,18.66
2023-04-03T13:31:57.221Z,18.49
2023-04-03T13:34:21.267Z,17.15
2023-04-03T13:36:55.426Z,15.73
2023-04-03T13:39:16.840Z,14.91
2023-04-03T13:41:41.201Z,14.16
2023-04-03T13:44:23.737Z,13.16
2023-04-03T13:46:45.629Z,12.64
2023-04-03T13:49:28.456Z,12.20
2023-04-03T13:52:04.348Z,12.48
2023-04-03T13:54:37.752Z,12.06
2023-04-03T13:57:00.843Z,11.70
2023-04-03T13:59:36.820Z,11.56
2023-04-03T14:02:04.494Z,10.82
2023-04-03T14:04:30.098Z,10.40
2023-04-03T14:06:52.759Z,10.52
2023-04-03T14:09:15.677Z,10.39
2023-04-03T14:11:37.428Z,10.43
2023-04-03T14:14:03.092Z,10.92
2023-04-03T14:16:28.380Z,10.94
2023-04-03T14:18:51.067Z,10.94
2023-04-03T14:21:14.692Z,10.94
2023-04-03T14:23:36.165Z,10.82
2023-04-03T14:25:57.631Z,10.79
2023-04-03T14:28:22.600Z,11.24
2023-04-03T14:30:45.242Z,11.36
2023-04-03T14:33:07.092Z,11.43
2023-04-03T14:35:29.093Z,12.57
2023-04-03T14:37:51.715Z,13.54
2023-04-03T14:40:17.247Z,14.25
2023-04-03T14:42:38.707Z,15.37
2023-04-03T14:45:02.051Z,16.22
2023-04-03T14:47:31.832Z,15.71
2023-04-03T14:49:54.223Z,14.73
2023-04-03T14:52:45.081Z,15.24
2023-04-03T14:55:07.543Z,14.83
2023-04-03T14:57:31.141Z,15.91
2023-04-03T14:59:53.420Z,16.79
2023-04-03T15:02:28.238Z,17.43
2023-04-03T15:04:51.457Z,17.57
2023-04-03T15:07:14.469Z,18.32
2023-04-03T15:09:36.887Z,19.65
2023-04-03T15:11:58.455Z,18.92
2023-04-03T15:14:29.977Z,18.12
2023-04-03T15:16:58.730Z,16.58
2023-04-03T15:19:20.279Z,16.89
2023-04-03T15:21:41.871Z,17.26
2023-04-03T15:24:03.641Z,17.56
2023-04-03T15:26:26.065Z,17.53
2023-04-03T15:28:47.648Z,18.38
2023-04-03T15:31:10.008Z,18.09
2023-04-03T15:33:33.242Z,18.03
2023-04-03T15:36:02.691Z,18.67
2023-04-03T15:38:28.442Z,18.28
2023-04-03T15:40:50.042Z,17.85
2023-04-03T15:43:11.858Z,18.19
2023-04-03T15:45:36.027Z,18.36
2023-04-03T15:47:58.676Z,18.47
2023-04-03T15:50:20.278Z,19.25
2023-04-03T15:52:41.785Z,18.59
2023-04-03T15:55:04.070Z,18.71
2023-04-03T15:57:27.856Z,19.05
2023-04-03T15:59:49.367Z,17.71
2023-04-03T16:02:13.938Z,16.26
2023-04-03T16:04:36.124Z,15.95
2023-04-03T16:06:57.823Z,15.31
2023-04-03T16:09:19.445Z,14.38
2023-04-03T16:11:41.111Z,13.29
2023-04-03T16:14:02.737Z,12.67
2023-04-03T16:16:27.001Z,12.57
2023-04-03T16:18:48.793Z,12.32
2023-04-03T16:21:10.388Z,12.33
2023-04-03T16:23:31.880Z,12.52
2023-04-03T16:25:53.504Z,11.99
2023-04-03T16:28:15.562Z,11.73
2023-04-03T16:30:37.099Z,11.49
2023-04-03T16:32:58.712Z,11.15
2023-04-03T16:35:20.324Z,11.00
2023-04-03T16:37:41.890Z,10.61
2023-04-03T16:40:04.605Z,10.41
2023-04-03T16:42:26.529Z,10.41
2023-04-03T16:44:48.098Z,10.53
2023-04-03T16:47:09.960Z,10.17
2023-04-03T16:49:33.882Z,9.95
2023-04-03T16:51:55.501Z,9.72
2023-04-03T16:54:17.021Z,9.40
2023-04-03T16:56:38.482Z,8.87
2023-04-03T16:58:59.968Z,8.57
2023-04-03T17:01:23.751Z,8.11
2023-04-03T17:03:45.817Z,7.79
2023-04-03T17:06:07.419Z,7.70
2023-04-03T17:08:28.939Z,7.63
2023-04-03T17:10:52.843Z,7.47
2023-04-03T17:13:14.363Z,7.37
2023-04-03T17:15:36.419Z,7.02
2023-04-03T17:17:58.043Z,6.73
2023-04-03T17:20:19.927Z,6.57
2023-04-03T17:22:41.510Z,6.45
2023-04-03T17:25:03.775Z,6.42
2023-04-03T17:27:25.697Z,6.23
2023-04-03T17:29:47.256Z,6.23
2023-04-03T17:32:08.909Z,6.04
2023-04-03T17:34:30.580Z,5.92
2023-04-03T17:36:52.056Z,5.83
2023-04-03T17:39:13.938Z,5.83
2023-04-03T17:41:35.890Z,5.77
2023-04-03T17:43:57.486Z,5.65
2023-04-03T17:46:19.077Z,5.56
2023-04-03T17:48:41.485Z,5.49
2023-04-03T17:51:07.527Z,5.45
2023-04-03T17:53:28.972Z,5.50
2023-04-03T17:55:50.519Z,5.40
2023-04-03T17:58:12.233Z,5.32
2023-04-03T18:00:33.765Z,5.11
2023-04-03T18:02:55.989Z,4.95
2023-04-03T18:05:17.519Z,5.25
2023-04-03T18:07:40.729Z,5.15
2023-04-03T18:10:05.102Z,4.99
2023-04-03T18:12:26.901Z,4.95
2023-04-03T18:14:49.383Z,4.91
2023-04-03T18:17:11.224Z,4.97
2023-04-03T18:19:33.385Z,4.66
2023-04-03T18:22:01.932Z,4.65
2023-04-03T18:24:24.637Z,4.57
2023-04-03T18:26:51.719Z,4.38
2023-04-03T18:29:13.486Z,4.31
2023-04-03T18:31:37.414Z,4.18
2023-04-03T18:33:59.161Z,4.35
2023-04-03T18:36:21.340Z,4.48
2023-04-03T18:38:42.820Z,4.58
2023-04-03T18:41:07.561Z,4.55
2023-04-03T18:43:29.524Z,4.51
2023-04-03T18:45:51.281Z,4.53
2023-04-03T18:48:12.909Z,4.55
2023-04-03T18:50:35.030Z,4.61
2023-04-03T18:52:56.636Z,4.56
2023-04-03T18:55:21.905Z,4.45
2023-04-03T18:57:43.405Z,4.42
2023-04-03T19:00:05.854Z,4.49
2023-04-03T19:02:28.161Z,4.37
2023-04-03T19:04:50.990Z,4.40
2023-04-03T19:07:12.990Z,4.44
2023-04-03T19:09:34.661Z,4.43
2023-04-03T19:11:56.121Z,4.42
2023-04-03T19:14:17.653Z,4.29
2023-04-03T19:16:39.525Z,4.08
2023-04-03T19:19:01.076Z,4.10
2023-04-03T19:21:22.609Z,4.08
2023-04-03T19:23:44.992Z,4.10
2023-04-03T19:26:08.309Z,4.24
2023-04-03T19:28:30.003Z,4.38
2023-04-03T19:30:51.707Z,4.24
2023-04-03T19:33:13.326Z,4.05
2023-04-03T19:35:34.866Z,4.01
2023-04-03T19:37:56.323Z,4.02
2023-04-03T19:40:18.098Z,4.02
2023-04-03T19:42:42.891Z,4.13
2023-04-03T19:45:04.767Z,4.40
2023-04-03T19:47:26.340Z,4.33
2023-04-03T19:49:48.597Z,4.14
2023-04-03T19:52:10.322Z,4.35
2023-04-03T19:54:31.799Z,4.55
2023-04-03T19:56:53.465Z,4.37
2023-04-03T19:59:16.504Z,4.27
2023-04-03T20:01:38.220Z,4.24
2023-04-03T20:03:59.730Z,4.51
2023-04-03T20:06:21.821Z,4.17
2023-04-03T20:08:43.780Z,4.20
2023-04-03T20:11:05.976Z,4.34
2023-04-03T20:13:27.559Z,4.31
2023-04-03T20:15:49.237Z,3.95
2023-04-03T20:18:18.046Z,3.85
2023-04-03T20:20:42.528Z,3.94
2023-04-03T20:23:04.352Z,3.91
2023-04-03T20:27:53.108Z,4.18
2023-04-03T20:30:14.868Z,4.31
2023-04-03T20:32:36.478Z,4.19
2023-04-03T20:35:04.447Z,4.16
2023-04-03T20:37:26.665Z,4.05
2023-04-03T20:39:48.555Z,4.05
2023-04-03T20:42:10.961Z,4.06
2023-04-03T20:44:33.011Z,4.07
2023-04-03T20:46:54.597Z,4.18
2023-04-03T20:49:16.164Z,4.05
2023-04-03T20:51:38.508Z,4.11
2023-04-03T20:53:59.987Z,4.08
2023-04-03T20:56:21.509Z,4.22
2023-04-03T20:58:43.971Z,4.35
2023-04-03T21:01:23.047Z,4.31
2023-04-03T21:03:46.361Z,4.17
2023-04-03T21:06:46.208Z,4.33
2023-04-03T21:09:45.818Z,4.32
2023-04-03T21:12:44.800Z,4.17
2023-04-03T21:15:45.207Z,4.17
2023-04-03T21:18:07.652Z,4.08
2023-04-03T21:20:31.310Z,4.07
2023-04-03T21:22:52.858Z,3.98
2023-04-03T21:25:14.324Z,3.98
2023-04-03T21:27:36.213Z,3.87
2023-04-03T21:29:58.469Z,3.82
2023-04-03T21:32:19.924Z,3.89
2023-04-03T21:34:41.349Z,3.79
2023-04-03T21:37:07.951Z,3.75
2023-04-03T21:39:29.589Z,3.60
2023-04-03T21:41:52.186Z,3.62
2023-04-03T21:44:13.658Z,3.87
2023-04-03T21:46:35.810Z,3.77
2023-04-03T21:48:57.972Z,3.88
2023-04-03T21:51:19.469Z,3.73
2023-04-03T21:53:41.933Z,3.73
2023-04-03T21:56:03.550Z,3.75
2023-04-03T21:58:30.645Z,3.78
2023-04-03T22:00:52.113Z,3.55
2023-04-03T22:03:18.947Z,3.63
2023-04-03T22:05:40.484Z,3.67
2023-04-03T22:08:01.993Z,3.93
2023-04-03T22:10:23.830Z,3.85
2023-04-03T22:12:45.303Z,3.79
2023-04-03T22:15:07.718Z,3.64
2023-04-03T22:17:32.056Z,3.44
2023-04-03T22:19:53.557Z,3.54
2023-04-03T22:22:15.150Z,3.56
2023-04-03T22:24:36.654Z,3.57
2023-04-03T22:26:58.122Z,3.72
2023-04-03T22:29:19.558Z,3.66
2023-04-03T22:31:42.368Z,3.55
2023-04-03T22:34:06.787Z,3.48
2023-04-03T22:36:28.240Z,3.37
2023-04-03T22:38:49.741Z,3.66
2023-04-03T22:41:11.952Z,3.84
2023-04-03T22:43:34.959Z,3.74
2023-04-03T22:45:57.230Z,3.69
2023-04-03T22:48:18.812Z,3.88
2023-04-03T22:50:40.838Z,3.91
2023-04-03T22:53:02.436Z,4.04
2023-04-03T22:55:24.982Z,4.14
2023-04-03T22:57:49.656Z,4.11
2023-04-03T23:00:11.656Z,4.22
2023-04-03T23:02:33.586Z,4.08
2023-04-03T23:04:55.102Z,4.02
2023-04-03T23:07:17.359Z,4.00
2023-04-03T23:09:38.849Z,4.16
2023-04-03T23:12:00.346Z,3.99
2023-04-03T23:14:22.717Z,4.01
2023-04-03T23:16:44.189Z,4.00
2023-04-03T23:19:05.718Z,3.91
2023-04-03T23:21:27.157Z,4.04
2023-04-03T23:23:48.639Z,4.26
2023-04-03T23:26:10.192Z,4.35
2023-04-03T23:28:31.669Z,4.28
2023-04-03T23:31:04.017Z,4.12
2023-04-03T23:33:25.725Z,4.03
2023-04-03T23:35:49.016Z,3.87
2023-04-03T23:38:10.824Z,3.88
2023-04-03T23:40:32.272Z,3.91
2023-04-03T23:42:53.766Z,3.98
2023-04-03T23:45:15.224Z,4.11
2023-04-03T23:47:37.458Z,4.06
2023-04-03T23:49:58.919Z,4.05
2023-04-03T23:52:20.409Z,4.15
2023-04-03T23:54:41.953Z,4.30
2023-04-03T23:57:03.532Z,4.36
2023-04-03T23:59:25.033Z,4.44
